sensor_id;sensor_type;location;lat;lon;timestamp;temperature;humidity
15636;DHT22;7917;50.818;6.972;2022-08-18T00:02:14;18.10;1.00
15636;DHT22;7917;50.818;6.972;2022-08-18T00:04:43;18.20;1.00
15636;DHT22;7917;50.818;6.972;2022-08-18T00:07:18;18.20;1.00
15636;DHT22;7917;50.818;6.972;2022-08-18T00:09:48;18.20;1.00
15636;DHT22;7917;50.818;6.972;2022-08-18T00:12:18;18.30;1.00
15636;DHT22;7917;50.818;6.972;2022-08-18T00:14:46;18.30;1.00
15636;DHT22;7917;50.818;6.972;2022-08-18T00:17:14;18.30;1.00
15636;DHT22;7917;50.818;6.972;2022-08-18T00:19:42;18.30;1.00
15636;DHT22;7917;50.818;6.972;2022-08-18T00:22:10;18.20;1.00
15636;DHT22;7917;50.818;6.972;2022-08-18T00:24:38;18.20;1.00
15636;DHT22;7917;50.818;6.972;2022-08-18T00:27:06;18.20;1.00
15636;DHT22;7917;50.818;6.972;2022-08-18T00:29:35;18.20;1.00
15636;DHT22;7917;50.818;6.972;2022-08-18T00:32:12;18.30;1.00
15636;DHT22;7917;50.818;6.972;2022-08-18T00:34:39;18.20;1.00
15636;DHT22;7917;50.818;6.972;2022-08-18T00:37:06;18.20;1.00
15636;DHT22;7917;50.818;6.972;2022-08-18T00:39:34;18.20;1.00
15636;DHT22;7917;50.818;6.972;2022-08-18T00:42:13;18.20;1.00
15636;DHT22;7917;50.818;6.972;2022-08-18T00:44:40;18.10;1.00
15636;DHT22;7917;50.818;6.972;2022-08-18T00:47:08;18.10;1.00
15636;DHT22;7917;50.818;6.972;2022-08-18T00:49:36;18.10;1.00
15636;DHT22;7917;50.818;6.972;2022-08-18T00:52:04;18.10;1.00
15636;DHT22;7917;50.818;6.972;2022-08-18T00:54:33;18.10;1.00
15636;DHT22;7917;50.818;6.972;2022-08-18T00:57:04;18.00;1.00
15636;DHT22;7917;50.818;6.972;2022-08-18T00:59:38;18.00;1.00
15636;DHT22;7917;50.818;6.972;2022-08-18T01:02:11;17.90;1.00
15636;DHT22;7917;50.818;6.972;2022-08-18T01:04:44;17.90;1.00
15636;DHT22;7917;50.818;6.972;2022-08-18T01:07:15;17.80;1.00
15636;DHT22;7917;50.818;6.972;2022-08-18T01:09:45;17.80;1.00
15636;DHT22;7917;50.818;6.972;2022-08-18T01:12:12;17.70;3.20
15636;DHT22;7917;50.818;6.972;2022-08-18T01:14:41;17.70;13.30
15636;DHT22;7917;50.818;6.972;2022-08-18T01:17:09;17.70;27.50
15636;DHT22;7917;50.818;6.972;2022-08-18T01:19:54;17.70;51.00
15636;DHT22;7917;50.818;6.972;2022-08-18T01:22:51;17.60;83.30
15636;DHT22;7917;50.818;6.972;2022-08-18T01:25:21;17.60;99.10
15636;DHT22;7917;50.818;6.972;2022-08-18T01:28:07;17.60;99.90
15636;DHT22;7917;50.818;6.972;2022-08-18T01:30:44;17.60;79.70
15636;DHT22;7917;50.818;6.972;2022-08-18T01:33:12;17.60;90.10
15636;DHT22;7917;50.818;6.972;2022-08-18T01:35:39;17.60;81.70
15636;DHT22;7917;50.818;6.972;2022-08-18T01:38:09;17.60;99.90
15636;DHT22;7917;50.818;6.972;2022-08-18T01:40:39;17.60;99.90
15636;DHT22;7917;50.818;6.972;2022-08-18T01:43:07;17.60;99.90
15636;DHT22;7917;50.818;6.972;2022-08-18T01:45:34;17.60;99.90
15636;DHT22;7917;50.818;6.972;2022-08-18T01:48:05;17.50;99.90
15636;DHT22;7917;50.818;6.972;2022-08-18T01:50:33;17.50;99.90
15636;DHT22;7917;50.818;6.972;2022-08-18T01:53:01;17.50;99.90
15636;DHT22;7917;50.818;6.972;2022-08-18T01:55:31;17.50;99.90
15636;DHT22;7917;50.818;6.972;2022-08-18T01:57:58;17.50;99.90
15636;DHT22;7917;50.818;6.972;2022-08-18T02:00:26;17.40;99.90
15636;DHT22;7917;50.818;6.972;2022-08-18T02:02:54;17.40;99.90
15636;DHT22;7917;50.818;6.972;2022-08-18T02:05:28;17.40;99.90
15636;DHT22;7917;50.818;6.972;2022-08-18T02:07:56;17.30;99.90
15636;DHT22;7917;50.818;6.972;2022-08-18T02:10:24;17.30;99.90
15636;DHT22;7917;50.818;6.972;2022-08-18T02:12:53;17.20;99.90
15636;DHT22;7917;50.818;6.972;2022-08-18T02:15:20;17.10;99.90
15636;DHT22;7917;50.818;6.972;2022-08-18T02:17:48;17.10;99.90
15636;DHT22;7917;50.818;6.972;2022-08-18T02:20:17;17.10;99.90
15636;DHT22;7917;50.818;6.972;2022-08-18T02:22:45;17.00;99.90
15636;DHT22;7917;50.818;6.972;2022-08-18T02:25:14;17.00;99.90
15636;DHT22;7917;50.818;6.972;2022-08-18T02:27:42;16.90;99.90
15636;DHT22;7917;50.818;6.972;2022-08-18T02:30:13;16.80;99.90
15636;DHT22;7917;50.818;6.972;2022-08-18T02:32:41;16.90;99.90
15636;DHT22;7917;50.818;6.972;2022-08-18T02:35:09;16.90;99.90
15636;DHT22;7917;50.818;6.972;2022-08-18T02:37:37;16.90;99.90
15636;DHT22;7917;50.818;6.972;2022-08-18T02:40:05;16.90;99.90
15636;DHT22;7917;50.818;6.972;2022-08-18T02:42:32;16.90;99.90
15636;DHT22;7917;50.818;6.972;2022-08-18T02:44:59;16.90;99.90
15636;DHT22;7917;50.818;6.972;2022-08-18T02:47:28;16.90;99.90
15636;DHT22;7917;50.818;6.972;2022-08-18T02:49:56;16.80;99.90
15636;DHT22;7917;50.818;6.972;2022-08-18T02:52:23;16.90;99.90
15636;DHT22;7917;50.818;6.972;2022-08-18T02:54:52;16.70;99.90
15636;DHT22;7917;50.818;6.972;2022-08-18T02:57:21;16.70;99.90
15636;DHT22;7917;50.818;6.972;2022-08-18T02:59:48;16.70;99.90
15636;DHT22;7917;50.818;6.972;2022-08-18T03:02:16;16.70;99.90
15636;DHT22;7917;50.818;6.972;2022-08-18T03:04:44;16.60;99.90
15636;DHT22;7917;50.818;6.972;2022-08-18T03:07:12;16.60;99.90
15636;DHT22;7917;50.818;6.972;2022-08-18T03:09:40;16.60;99.90
15636;DHT22;7917;50.818;6.972;2022-08-18T03:12:08;16.50;99.90
15636;DHT22;7917;50.818;6.972;2022-08-18T03:14:36;16.50;99.90
15636;DHT22;7917;50.818;6.972;2022-08-18T03:17:07;16.50;99.90
15636;DHT22;7917;50.818;6.972;2022-08-18T03:19:35;16.40;99.90
15636;DHT22;7917;50.818;6.972;2022-08-18T03:22:06;16.40;99.90
15636;DHT22;7917;50.818;6.972;2022-08-18T03:24:33;16.30;99.90
15636;DHT22;7917;50.818;6.972;2022-08-18T03:27:04;16.30;99.90
15636;DHT22;7917;50.818;6.972;2022-08-18T03:29:31;16.30;99.90
15636;DHT22;7917;50.818;6.972;2022-08-18T03:31:59;16.20;99.90
15636;DHT22;7917;50.818;6.972;2022-08-18T03:34:26;16.20;99.90
15636;DHT22;7917;50.818;6.972;2022-08-18T03:36:54;16.10;99.90
15636;DHT22;7917;50.818;6.972;2022-08-18T03:39:22;16.10;99.90
15636;DHT22;7917;50.818;6.972;2022-08-18T03:41:51;16.10;99.90
15636;DHT22;7917;50.818;6.972;2022-08-18T03:44:22;16.10;99.90
15636;DHT22;7917;50.818;6.972;2022-08-18T03:46:50;16.20;99.90
15636;DHT22;7917;50.818;6.972;2022-08-18T03:49:18;16.20;99.90
15636;DHT22;7917;50.818;6.972;2022-08-18T03:51:45;16.10;99.90
15636;DHT22;7917;50.818;6.972;2022-08-18T03:54:14;16.10;99.90
15636;DHT22;7917;50.818;6.972;2022-08-18T03:56:44;16.10;99.90
15636;DHT22;7917;50.818;6.972;2022-08-18T03:59:14;16.10;99.90
15636;DHT22;7917;50.818;6.972;2022-08-18T04:01:43;16.10;99.90
15636;DHT22;7917;50.818;6.972;2022-08-18T04:04:15;16.10;99.90
15636;DHT22;7917;50.818;6.972;2022-08-18T04:06:46;16.10;99.90
15636;DHT22;7917;50.818;6.972;2022-08-18T04:09:16;16.20;99.90
15636;DHT22;7917;50.818;6.972;2022-08-18T04:11:45;16.20;99.90
15636;DHT22;7917;50.818;6.972;2022-08-18T04:14:18;16.10;99.90
15636;DHT22;7917;50.818;6.972;2022-08-18T04:16:46;16.00;99.90
15636;DHT22;7917;50.818;6.972;2022-08-18T04:19:14;16.00;99.90
15636;DHT22;7917;50.818;6.972;2022-08-18T04:21:43;16.00;99.90
15636;DHT22;7917;50.818;6.972;2022-08-18T04:24:12;16.10;99.90
15636;DHT22;7917;50.818;6.972;2022-08-18T04:26:42;16.10;99.90
15636;DHT22;7917;50.818;6.972;2022-08-18T04:29:14;16.10;99.90
15636;DHT22;7917;50.818;6.972;2022-08-18T04:31:42;16.10;99.90
15636;DHT22;7917;50.818;6.972;2022-08-18T04:34:09;16.20;99.90
15636;DHT22;7917;50.818;6.972;2022-08-18T04:36:37;16.20;99.90
15636;DHT22;7917;50.818;6.972;2022-08-18T04:39:07;16.20;99.90
15636;DHT22;7917;50.818;6.972;2022-08-18T04:41:35;16.20;99.90
15636;DHT22;7917;50.818;6.972;2022-08-18T04:44:06;16.30;99.90
15636;DHT22;7917;50.818;6.972;2022-08-18T04:46:36;16.30;99.90
15636;DHT22;7917;50.818;6.972;2022-08-18T04:49:05;16.40;99.90
15636;DHT22;7917;50.818;6.972;2022-08-18T04:51:32;16.50;99.90
15636;DHT22;7917;50.818;6.972;2022-08-18T04:53:59;16.60;99.90
15636;DHT22;7917;50.818;6.972;2022-08-18T04:56:28;16.70;99.90
15636;DHT22;7917;50.818;6.972;2022-08-18T04:59:00;16.80;99.90
15636;DHT22;7917;50.818;6.972;2022-08-18T05:01:29;16.90;99.90
15636;DHT22;7917;50.818;6.972;2022-08-18T05:03:58;17.00;99.90
15636;DHT22;7917;50.818;6.972;2022-08-18T05:06:26;17.10;99.90
15636;DHT22;7917;50.818;6.972;2022-08-18T05:08:55;17.10;99.90
15636;DHT22;7917;50.818;6.972;2022-08-18T05:11:25;17.20;99.90
15636;DHT22;7917;50.818;6.972;2022-08-18T05:13:55;17.20;99.90
15636;DHT22;7917;50.818;6.972;2022-08-18T05:16:23;17.20;99.90
15636;DHT22;7917;50.818;6.972;2022-08-18T05:18:51;17.20;99.90
15636;DHT22;7917;50.818;6.972;2022-08-18T05:21:21;17.20;99.90
15636;DHT22;7917;50.818;6.972;2022-08-18T05:23:49;17.30;99.90
15636;DHT22;7917;50.818;6.972;2022-08-18T05:26:18;17.30;99.90
15636;DHT22;7917;50.818;6.972;2022-08-18T05:28:47;17.40;99.90
15636;DHT22;7917;50.818;6.972;2022-08-18T05:31:16;17.50;99.90
15636;DHT22;7917;50.818;6.972;2022-08-18T05:33:44;17.60;99.90
15636;DHT22;7917;50.818;6.972;2022-08-18T05:36:31;17.70;99.90
15636;DHT22;7917;50.818;6.972;2022-08-18T05:39:07;17.70;99.90
15636;DHT22;7917;50.818;6.972;2022-08-18T05:41:37;17.80;99.90
15636;DHT22;7917;50.818;6.972;2022-08-18T05:44:07;17.80;99.90
15636;DHT22;7917;50.818;6.972;2022-08-18T05:46:39;17.80;99.90
15636;DHT22;7917;50.818;6.972;2022-08-18T05:49:08;17.80;99.90
15636;DHT22;7917;50.818;6.972;2022-08-18T05:51:41;17.80;99.90
15636;DHT22;7917;50.818;6.972;2022-08-18T05:54:10;17.90;99.90
15636;DHT22;7917;50.818;6.972;2022-08-18T05:56:59;17.90;99.90
15636;DHT22;7917;50.818;6.972;2022-08-18T05:59:32;18.00;99.90
15636;DHT22;7917;50.818;6.972;2022-08-18T06:02:04;18.00;99.90
15636;DHT22;7917;50.818;6.972;2022-08-18T06:04:45;18.00;99.90
15636;DHT22;7917;50.818;6.972;2022-08-18T06:07:18;18.10;99.90
15636;DHT22;7917;50.818;6.972;2022-08-18T06:09:51;18.10;99.90
15636;DHT22;7917;50.818;6.972;2022-08-18T06:12:25;18.10;99.90
15636;DHT22;7917;50.818;6.972;2022-08-18T06:14:58;18.00;99.90
15636;DHT22;7917;50.818;6.972;2022-08-18T06:17:48;18.00;99.90
15636;DHT22;7917;50.818;6.972;2022-08-18T06:20:25;18.00;99.90
15636;DHT22;7917;50.818;6.972;2022-08-18T06:23:03;18.00;99.90
15636;DHT22;7917;50.818;6.972;2022-08-18T06:25:40;18.00;99.90
15636;DHT22;7917;50.818;6.972;2022-08-18T06:28:13;18.00;99.90
15636;DHT22;7917;50.818;6.972;2022-08-18T06:30:47;18.00;99.90
15636;DHT22;7917;50.818;6.972;2022-08-18T06:33:35;18.00;99.90
15636;DHT22;7917;50.818;6.972;2022-08-18T06:36:08;18.00;99.90
15636;DHT22;7917;50.818;6.972;2022-08-18T06:38:48;17.90;99.90
15636;DHT22;7917;50.818;6.972;2022-08-18T06:41:20;17.90;99.90
15636;DHT22;7917;50.818;6.972;2022-08-18T06:43:59;17.90;99.90
15636;DHT22;7917;50.818;6.972;2022-08-18T06:46:34;17.90;99.90
15636;DHT22;7917;50.818;6.972;2022-08-18T06:49:08;17.90;99.90
15636;DHT22;7917;50.818;6.972;2022-08-18T06:51:38;17.90;99.90
15636;DHT22;7917;50.818;6.972;2022-08-18T06:54:23;17.90;99.90
15636;DHT22;7917;50.818;6.972;2022-08-18T06:56:54;18.00;99.90
15636;DHT22;7917;50.818;6.972;2022-08-18T06:59:25;18.00;99.90
15636;DHT22;7917;50.818;6.972;2022-08-18T07:01:54;18.10;99.90
15636;DHT22;7917;50.818;6.972;2022-08-18T07:04:59;18.10;99.90
15636;DHT22;7917;50.818;6.972;2022-08-18T07:07:33;18.10;99.90
15636;DHT22;7917;50.818;6.972;2022-08-18T07:10:04;18.10;99.90
15636;DHT22;7917;50.818;6.972;2022-08-18T07:12:31;18.10;99.90
15636;DHT22;7917;50.818;6.972;2022-08-18T07:15:00;18.10;99.90
15636;DHT22;7917;50.818;6.972;2022-08-18T07:17:31;18.20;99.90
15636;DHT22;7917;50.818;6.972;2022-08-18T07:20:03;18.30;99.90
15636;DHT22;7917;50.818;6.972;2022-08-18T07:22:31;18.40;99.90
15636;DHT22;7917;50.818;6.972;2022-08-18T07:25:02;18.50;99.90
15636;DHT22;7917;50.818;6.972;2022-08-18T07:27:42;18.50;99.90
15636;DHT22;7917;50.818;6.972;2022-08-18T07:30:12;18.70;99.90
15636;DHT22;7917;50.818;6.972;2022-08-18T07:32:43;18.70;99.90
15636;DHT22;7917;50.818;6.972;2022-08-18T07:35:15;18.80;99.90
15636;DHT22;7917;50.818;6.972;2022-08-18T07:37:47;18.90;99.90
15636;DHT22;7917;50.818;6.972;2022-08-18T07:40:23;19.00;99.90
15636;DHT22;7917;50.818;6.972;2022-08-18T07:42:57;19.20;99.90
15636;DHT22;7917;50.818;6.972;2022-08-18T07:45:31;19.20;99.90
15636;DHT22;7917;50.818;6.972;2022-08-18T07:48:05;19.20;99.90
15636;DHT22;7917;50.818;6.972;2022-08-18T07:50:41;19.20;99.90
15636;DHT22;7917;50.818;6.972;2022-08-18T07:53:22;19.20;99.90
15636;DHT22;7917;50.818;6.972;2022-08-18T07:55:59;19.10;99.90
15636;DHT22;7917;50.818;6.972;2022-08-18T07:58:31;19.20;99.90
15636;DHT22;7917;50.818;6.972;2022-08-18T08:01:03;19.20;99.90
15636;DHT22;7917;50.818;6.972;2022-08-18T08:03:43;19.20;99.90
15636;DHT22;7917;50.818;6.972;2022-08-18T08:06:18;19.40;99.90
15636;DHT22;7917;50.818;6.972;2022-08-18T08:08:54;19.50;99.90
15636;DHT22;7917;50.818;6.972;2022-08-18T08:11:34;19.60;99.90
15636;DHT22;7917;50.818;6.972;2022-08-18T08:14:14;19.70;99.90
15636;DHT22;7917;50.818;6.972;2022-08-18T08:16:46;19.80;99.90
15636;DHT22;7917;50.818;6.972;2022-08-18T08:19:31;20.00;99.90
15636;DHT22;7917;50.818;6.972;2022-08-18T08:22:05;20.10;99.90
15636;DHT22;7917;50.818;6.972;2022-08-18T08:24:51;20.20;99.90
15636;DHT22;7917;50.818;6.972;2022-08-18T08:27:27;20.30;99.90
15636;DHT22;7917;50.818;6.972;2022-08-18T08:30:04;20.30;99.90
15636;DHT22;7917;50.818;6.972;2022-08-18T08:32:34;20.40;99.90
15636;DHT22;7917;50.818;6.972;2022-08-18T08:35:06;20.50;99.90
15636;DHT22;7917;50.818;6.972;2022-08-18T08:37:39;20.50;99.90
15636;DHT22;7917;50.818;6.972;2022-08-18T08:40:13;20.60;99.90
15636;DHT22;7917;50.818;6.972;2022-08-18T08:42:48;20.70;99.90
15636;DHT22;7917;50.818;6.972;2022-08-18T08:45:20;20.80;99.90
15636;DHT22;7917;50.818;6.972;2022-08-18T08:47:55;21.00;99.90
15636;DHT22;7917;50.818;6.972;2022-08-18T08:50:35;20.90;99.90
15636;DHT22;7917;50.818;6.972;2022-08-18T08:53:09;21.00;99.90
15636;DHT22;7917;50.818;6.972;2022-08-18T08:55:49;21.10;99.90
15636;DHT22;7917;50.818;6.972;2022-08-18T08:58:21;21.30;99.90
15636;DHT22;7917;50.818;6.972;2022-08-18T09:00:50;21.40;99.90
15636;DHT22;7917;50.818;6.972;2022-08-18T09:03:41;21.70;99.90
15636;DHT22;7917;50.818;6.972;2022-08-18T09:06:28;21.70;1.00
15636;DHT22;7917;50.818;6.972;2022-08-18T09:09:22;21.60;99.90
15636;DHT22;7917;50.818;6.972;2022-08-18T09:12:04;21.70;99.90
15636;DHT22;7917;50.818;6.972;2022-08-18T09:23:31;21.60;99.90
15636;DHT22;7917;50.818;6.972;2022-08-18T09:26:20;21.60;99.90
15636;DHT22;7917;50.818;6.972;2022-08-18T09:29:09;21.70;99.90
15636;DHT22;7917;50.818;6.972;2022-08-18T09:31:39;21.90;91.60
15636;DHT22;7917;50.818;6.972;2022-08-18T09:34:32;21.80;19.40
15636;DHT22;7917;50.818;6.972;2022-08-18T09:37:11;22.10;1.00
15636;DHT22;7917;50.818;6.972;2022-08-18T09:39:42;22.20;1.00
15636;DHT22;7917;50.818;6.972;2022-08-18T09:42:33;22.20;1.00
15636;DHT22;7917;50.818;6.972;2022-08-18T09:47:58;22.40;99.90
15636;DHT22;7917;50.818;6.972;2022-08-18T09:50:38;22.60;1.00
15636;DHT22;7917;50.818;6.972;2022-08-18T09:53:33;22.90;1.00
15636;DHT22;7917;50.818;6.972;2022-08-18T09:56:03;22.80;99.90
15636;DHT22;7917;50.818;6.972;2022-08-18T09:58:49;22.80;99.90
15636;DHT22;7917;50.818;6.972;2022-08-18T10:01:33;23.00;1.00
15636;DHT22;7917;50.818;6.972;2022-08-18T10:04:23;23.00;99.90
15636;DHT22;7917;50.818;6.972;2022-08-18T10:06:52;23.20;1.00
15636;DHT22;7917;50.818;6.972;2022-08-18T10:09:27;23.30;1.00
15636;DHT22;7917;50.818;6.972;2022-08-18T10:15:28;22.90;1.00
15636;DHT22;7917;50.818;6.972;2022-08-18T10:21:11;22.80;1.00
15636;DHT22;7917;50.818;6.972;2022-08-18T10:23:47;22.80;1.00
15636;DHT22;7917;50.818;6.972;2022-08-18T10:29:54;23.00;99.90
15636;DHT22;7917;50.818;6.972;2022-08-18T10:38:23;23.40;1.00
15636;DHT22;7917;50.818;6.972;2022-08-18T10:41:01;23.80;99.90
15636;DHT22;7917;50.818;6.972;2022-08-18T10:43:35;23.70;1.00
15636;DHT22;7917;50.818;6.972;2022-08-18T10:46:03;23.40;1.00
15636;DHT22;7917;50.818;6.972;2022-08-18T10:48:32;23.60;99.90
15636;DHT22;7917;50.818;6.972;2022-08-18T10:51:05;23.60;99.90
15636;DHT22;7917;50.818;6.972;2022-08-18T10:53:39;23.60;1.00
15636;DHT22;7917;50.818;6.972;2022-08-18T10:56:17;23.80;99.90
15636;DHT22;7917;50.818;6.972;2022-08-18T10:59:00;24.00;99.90
15636;DHT22;7917;50.818;6.972;2022-08-18T11:01:49;24.10;99.90
15636;DHT22;7917;50.818;6.972;2022-08-18T11:04:26;24.10;99.90
15636;DHT22;7917;50.818;6.972;2022-08-18T11:07:02;24.00;99.90
15636;DHT22;7917;50.818;6.972;2022-08-18T11:09:32;23.90;7.60
15636;DHT22;7917;50.818;6.972;2022-08-18T11:12:01;23.80;1.00
15636;DHT22;7917;50.818;6.972;2022-08-18T11:17:46;24.00;99.90
15636;DHT22;7917;50.818;6.972;2022-08-18T11:20:19;23.80;1.00
15636;DHT22;7917;50.818;6.972;2022-08-18T11:22:52;23.90;1.00
15636;DHT22;7917;50.818;6.972;2022-08-18T11:25:28;24.00;1.00
15636;DHT22;7917;50.818;6.972;2022-08-18T11:27:57;24.20;99.90
15636;DHT22;7917;50.818;6.972;2022-08-18T11:30:28;24.50;99.90
15636;DHT22;7917;50.818;6.972;2022-08-18T11:32:56;24.70;1.00
15636;DHT22;7917;50.818;6.972;2022-08-18T11:35:29;24.80;99.90
15636;DHT22;7917;50.818;6.972;2022-08-18T11:37:59;24.90;99.90
15636;DHT22;7917;50.818;6.972;2022-08-18T11:40:36;24.70;99.90
15636;DHT22;7917;50.818;6.972;2022-08-18T11:43:09;24.50;1.00
15636;DHT22;7917;50.818;6.972;2022-08-18T11:45:49;24.40;99.90
15636;DHT22;7917;50.818;6.972;2022-08-18T11:48:22;24.40;5.10
15636;DHT22;7917;50.818;6.972;2022-08-18T11:51:00;24.40;1.00
15636;DHT22;7917;50.818;6.972;2022-08-18T11:53:39;24.40;99.90
15636;DHT22;7917;50.818;6.972;2022-08-18T11:56:16;24.50;1.00
15636;DHT22;7917;50.818;6.972;2022-08-18T11:58:51;24.30;1.00
15636;DHT22;7917;50.818;6.972;2022-08-18T12:01:35;24.40;1.00
15636;DHT22;7917;50.818;6.972;2022-08-18T12:04:13;24.40;99.90
15636;DHT22;7917;50.818;6.972;2022-08-18T12:07:02;24.60;1.00
15636;DHT22;7917;50.818;6.972;2022-08-18T12:09:37;24.50;99.90
15636;DHT22;7917;50.818;6.972;2022-08-18T12:12:18;24.40;1.00
15636;DHT22;7917;50.818;6.972;2022-08-18T12:14:54;24.50;99.90
15636;DHT22;7917;50.818;6.972;2022-08-18T12:17:22;24.50;99.90
15636;DHT22;7917;50.818;6.972;2022-08-18T12:19:49;24.50;99.90
15636;DHT22;7917;50.818;6.972;2022-08-18T12:22:19;24.80;99.90
15636;DHT22;7917;50.818;6.972;2022-08-18T12:24:47;24.70;99.90
15636;DHT22;7917;50.818;6.972;2022-08-18T12:27:18;24.70;1.00
15636;DHT22;7917;50.818;6.972;2022-08-18T12:29:46;24.50;99.90
15636;DHT22;7917;50.818;6.972;2022-08-18T12:32:13;24.40;99.90
15636;DHT22;7917;50.818;6.972;2022-08-18T12:34:40;23.90;1.00
15636;DHT22;7917;50.818;6.972;2022-08-18T12:37:09;23.70;99.90
15636;DHT22;7917;50.818;6.972;2022-08-18T12:39:36;23.80;99.90
15636;DHT22;7917;50.818;6.972;2022-08-18T12:42:04;23.80;99.90
15636;DHT22;7917;50.818;6.972;2022-08-18T12:44:32;24.10;1.00
15636;DHT22;7917;50.818;6.972;2022-08-18T12:47:00;24.30;1.00
15636;DHT22;7917;50.818;6.972;2022-08-18T12:49:28;24.70;99.90
15636;DHT22;7917;50.818;6.972;2022-08-18T12:51:56;24.70;99.90
15636;DHT22;7917;50.818;6.972;2022-08-18T12:54:23;24.80;99.90
15636;DHT22;7917;50.818;6.972;2022-08-18T12:56:53;25.00;1.00
15636;DHT22;7917;50.818;6.972;2022-08-18T12:59:20;24.90;1.00
15636;DHT22;7917;50.818;6.972;2022-08-18T13:01:50;25.00;1.00
15636;DHT22;7917;50.818;6.972;2022-08-18T13:04:17;24.90;99.90
15636;DHT22;7917;50.818;6.972;2022-08-18T13:06:47;24.70;1.00
15636;DHT22;7917;50.818;6.972;2022-08-18T13:09:15;24.50;99.90
15636;DHT22;7917;50.818;6.972;2022-08-18T13:11:42;24.30;99.90
15636;DHT22;7917;50.818;6.972;2022-08-18T13:14:10;24.30;99.90
15636;DHT22;7917;50.818;6.972;2022-08-18T13:16:39;24.30;99.90
15636;DHT22;7917;50.818;6.972;2022-08-18T13:19:09;24.40;99.90
15636;DHT22;7917;50.818;6.972;2022-08-18T13:21:37;24.50;1.00
15636;DHT22;7917;50.818;6.972;2022-08-18T13:24:05;24.50;13.70
15636;DHT22;7917;50.818;6.972;2022-08-18T13:26:36;24.60;1.00
15636;DHT22;7917;50.818;6.972;2022-08-18T13:29:04;24.70;1.00
15636;DHT22;7917;50.818;6.972;2022-08-18T13:31:32;25.00;1.00
15636;DHT22;7917;50.818;6.972;2022-08-18T13:34:00;25.10;1.00
15636;DHT22;7917;50.818;6.972;2022-08-18T13:36:28;25.30;11.70
15636;DHT22;7917;50.818;6.972;2022-08-18T13:39:09;25.40;1.00
15636;DHT22;7917;50.818;6.972;2022-08-18T13:41:36;26.00;1.00
15636;DHT22;7917;50.818;6.972;2022-08-18T13:44:04;26.30;99.90
15636;DHT22;7917;50.818;6.972;2022-08-18T13:46:31;26.20;99.90
15636;DHT22;7917;50.818;6.972;2022-08-18T13:48:58;26.30;99.90
15636;DHT22;7917;50.818;6.972;2022-08-18T13:51:28;26.30;99.90
15636;DHT22;7917;50.818;6.972;2022-08-18T13:53:56;26.40;99.90
15636;DHT22;7917;50.818;6.972;2022-08-18T13:56:23;26.20;99.90
15636;DHT22;7917;50.818;6.972;2022-08-18T13:58:51;26.20;99.90
15636;DHT22;7917;50.818;6.972;2022-08-18T14:01:18;26.30;99.90
15636;DHT22;7917;50.818;6.972;2022-08-18T14:03:45;26.10;99.90
15636;DHT22;7917;50.818;6.972;2022-08-18T14:06:12;26.00;99.90
15636;DHT22;7917;50.818;6.972;2022-08-18T14:08:41;26.10;99.90
15636;DHT22;7917;50.818;6.972;2022-08-18T14:11:09;26.40;99.90
15636;DHT22;7917;50.818;6.972;2022-08-18T14:13:36;26.70;99.90
15636;DHT22;7917;50.818;6.972;2022-08-18T14:16:03;26.70;99.90
15636;DHT22;7917;50.818;6.972;2022-08-18T14:18:31;26.50;99.90
15636;DHT22;7917;50.818;6.972;2022-08-18T14:20:58;26.40;99.90
15636;DHT22;7917;50.818;6.972;2022-08-18T14:23:44;26.50;99.90
15636;DHT22;7917;50.818;6.972;2022-08-18T14:26:28;26.30;99.90
15636;DHT22;7917;50.818;6.972;2022-08-18T14:29:13;26.50;55.00
15636;DHT22;7917;50.818;6.972;2022-08-18T14:31:40;26.60;46.40
15636;DHT22;7917;50.818;6.972;2022-08-18T14:34:08;26.60;1.00
15636;DHT22;7917;50.818;6.972;2022-08-18T14:36:35;26.60;1.00
15636;DHT22;7917;50.818;6.972;2022-08-18T14:39:04;26.90;1.00
15636;DHT22;7917;50.818;6.972;2022-08-18T14:41:33;27.20;1.00
15636;DHT22;7917;50.818;6.972;2022-08-18T14:44:01;27.50;1.00
15636;DHT22;7917;50.818;6.972;2022-08-18T14:46:28;27.90;1.00
15636;DHT22;7917;50.818;6.972;2022-08-18T14:48:55;28.00;1.00
15636;DHT22;7917;50.818;6.972;2022-08-18T14:51:23;27.50;1.00
15636;DHT22;7917;50.818;6.972;2022-08-18T14:53:50;27.70;1.00
15636;DHT22;7917;50.818;6.972;2022-08-18T14:56:19;27.90;1.00
15636;DHT22;7917;50.818;6.972;2022-08-18T14:58:55;27.90;1.00
15636;DHT22;7917;50.818;6.972;2022-08-18T15:01:26;27.90;1.00
15636;DHT22;7917;50.818;6.972;2022-08-18T15:03:53;28.30;1.00
15636;DHT22;7917;50.818;6.972;2022-08-18T15:06:20;28.20;1.00
15636;DHT22;7917;50.818;6.972;2022-08-18T15:08:48;28.60;1.00
15636;DHT22;7917;50.818;6.972;2022-08-18T15:11:15;28.60;1.00
15636;DHT22;7917;50.818;6.972;2022-08-18T15:13:45;28.30;1.00
15636;DHT22;7917;50.818;6.972;2022-08-18T15:16:13;28.00;1.00
15636;DHT22;7917;50.818;6.972;2022-08-18T15:18:41;27.90;1.00
15636;DHT22;7917;50.818;6.972;2022-08-18T15:21:09;28.20;1.00
15636;DHT22;7917;50.818;6.972;2022-08-18T15:23:53;28.40;1.00
15636;DHT22;7917;50.818;6.972;2022-08-18T15:26:37;28.30;1.00
15636;DHT22;7917;50.818;6.972;2022-08-18T15:29:06;28.40;1.00
15636;DHT22;7917;50.818;6.972;2022-08-18T15:31:35;27.90;1.00
15636;DHT22;7917;50.818;6.972;2022-08-18T15:34:03;27.70;1.00
15636;DHT22;7917;50.818;6.972;2022-08-18T15:36:31;27.50;1.00
15636;DHT22;7917;50.818;6.972;2022-08-18T15:39:00;27.70;1.00
15636;DHT22;7917;50.818;6.972;2022-08-18T15:41:33;27.70;1.00
15636;DHT22;7917;50.818;6.972;2022-08-18T15:44:01;27.80;1.00
15636;DHT22;7917;50.818;6.972;2022-08-18T15:46:32;27.80;1.00
15636;DHT22;7917;50.818;6.972;2022-08-18T15:49:00;28.00;1.00
15636;DHT22;7917;50.818;6.972;2022-08-18T15:51:30;28.00;1.00
15636;DHT22;7917;50.818;6.972;2022-08-18T15:53:57;28.20;1.00
15636;DHT22;7917;50.818;6.972;2022-08-18T15:56:24;28.20;1.00
15636;DHT22;7917;50.818;6.972;2022-08-18T15:58:53;28.10;1.00
15636;DHT22;7917;50.818;6.972;2022-08-18T16:01:22;28.00;1.00
15636;DHT22;7917;50.818;6.972;2022-08-18T16:03:52;27.70;1.00
15636;DHT22;7917;50.818;6.972;2022-08-18T16:06:22;27.60;1.00
15636;DHT22;7917;50.818;6.972;2022-08-18T16:08:51;27.70;1.00
15636;DHT22;7917;50.818;6.972;2022-08-18T16:11:19;27.60;1.00
15636;DHT22;7917;50.818;6.972;2022-08-18T16:13:48;27.40;1.00
15636;DHT22;7917;50.818;6.972;2022-08-18T16:16:17;27.20;1.00
15636;DHT22;7917;50.818;6.972;2022-08-18T16:18:44;27.00;1.00
15636;DHT22;7917;50.818;6.972;2022-08-18T16:21:15;27.10;1.00
15636;DHT22;7917;50.818;6.972;2022-08-18T16:23:45;27.10;1.00
15636;DHT22;7917;50.818;6.972;2022-08-18T16:26:14;26.80;1.00
15636;DHT22;7917;50.818;6.972;2022-08-18T16:28:42;26.80;1.00
15636;DHT22;7917;50.818;6.972;2022-08-18T16:31:10;26.80;1.00
15636;DHT22;7917;50.818;6.972;2022-08-18T16:33:40;26.70;1.00
15636;DHT22;7917;50.818;6.972;2022-08-18T16:36:10;26.30;1.00
15636;DHT22;7917;50.818;6.972;2022-08-18T16:38:40;26.00;1.00
15636;DHT22;7917;50.818;6.972;2022-08-18T16:41:11;26.00;1.00
15636;DHT22;7917;50.818;6.972;2022-08-18T16:43:41;26.20;1.00
15636;DHT22;7917;50.818;6.972;2022-08-18T16:46:09;26.30;1.00
15636;DHT22;7917;50.818;6.972;2022-08-18T16:48:37;26.40;1.00
15636;DHT22;7917;50.818;6.972;2022-08-18T16:51:04;26.50;1.00
15636;DHT22;7917;50.818;6.972;2022-08-18T16:53:31;26.50;1.00